sensor_id;sensor_type;location;lat;lon;timestamp;temperature;humidity
1602;DHT22;794;48.592;9.634;2022-09-29T00:00:48;6.60;1.00
1602;DHT22;794;48.592;9.634;2022-09-29T00:05:47;5.50;1.00
1602;DHT22;794;48.592;9.634;2022-09-29T00:08:17;5.40;1.00
1602;DHT22;794;48.592;9.634;2022-09-29T00:10:44;5.50;1.00
1602;DHT22;794;48.592;9.634;2022-09-29T00:13:11;5.70;1.00
1602;DHT22;794;48.592;9.634;2022-09-29T00:20:34;5.80;1.00
1602;DHT22;794;48.592;9.634;2022-09-29T00:23:01;6.00;1.00
1602;DHT22;794;48.592;9.634;2022-09-29T00:25:29;6.00;1.00
1602;DHT22;794;48.592;9.634;2022-09-29T00:27:56;5.70;1.00
1602;DHT22;794;48.592;9.634;2022-09-29T00:30:23;6.10;1.00
1602;DHT22;794;48.592;9.634;2022-09-29T00:35:17;6.20;1.00
1602;DHT22;794;48.592;9.634;2022-09-29T00:42:40;6.20;1.00
1602;DHT22;794;48.592;9.634;2022-09-29T00:47:46;6.10;1.00
1602;DHT22;794;48.592;9.634;2022-09-29T00:50:19;6.10;1.00
1602;DHT22;794;48.592;9.634;2022-09-29T00:52:50;6.40;1.00
1602;DHT22;794;48.592;9.634;2022-09-29T00:55:21;6.20;1.00
1602;DHT22;794;48.592;9.634;2022-09-29T00:57:54;6.40;1.00
1602;DHT22;794;48.592;9.634;2022-09-29T01:02:52;6.30;1.00
1602;DHT22;794;48.592;9.634;2022-09-29T01:05:24;6.30;1.00
1602;DHT22;794;48.592;9.634;2022-09-29T01:07:52;9.80;1.00
1602;DHT22;794;48.592;9.634;2022-09-29T01:12:47;6.40;1.00
1602;DHT22;794;48.592;9.634;2022-09-29T01:15:18;6.40;1.00
1602;DHT22;794;48.592;9.634;2022-09-29T01:17:46;9.40;1.00
1602;DHT22;794;48.592;9.634;2022-09-29T01:20:16;6.40;1.00
1602;DHT22;794;48.592;9.634;2022-09-29T01:23:25;6.40;1.00
1602;DHT22;794;48.592;9.634;2022-09-29T01:26:29;6.80;1.00
1602;DHT22;794;48.592;9.634;2022-09-29T01:29:27;7.00;1.00
1602;DHT22;794;48.592;9.634;2022-09-29T01:32:02;6.40;1.00
1602;DHT22;794;48.592;9.634;2022-09-29T01:34:34;6.60;1.00
1602;DHT22;794;48.592;9.634;2022-09-29T01:37:09;6.40;1.00
1602;DHT22;794;48.592;9.634;2022-09-29T01:39:40;6.70;1.00
1602;DHT22;794;48.592;9.634;2022-09-29T01:42:12;10.10;1.00
1602;DHT22;794;48.592;9.634;2022-09-29T01:44:44;6.80;1.00
1602;DHT22;794;48.592;9.634;2022-09-29T01:47:18;6.50;1.00
1602;DHT22;794;48.592;9.634;2022-09-29T01:49:50;6.60;1.00
1602;DHT22;794;48.592;9.634;2022-09-29T01:52:21;6.50;1.00
1602;DHT22;794;48.592;9.634;2022-09-29T01:54:52;6.50;1.00
1602;DHT22;794;48.592;9.634;2022-09-29T01:57:24;6.40;1.00
1602;DHT22;794;48.592;9.634;2022-09-29T01:59:56;6.70;1.00
1602;DHT22;794;48.592;9.634;2022-09-29T02:02:33;6.60;1.00
1602;DHT22;794;48.592;9.634;2022-09-29T02:05:05;6.70;1.00
1602;DHT22;794;48.592;9.634;2022-09-29T02:07:37;6.80;1.00
1602;DHT22;794;48.592;9.634;2022-09-29T02:10:09;10.00;1.00
1602;DHT22;794;48.592;9.634;2022-09-29T02:12:39;6.70;1.00
1602;DHT22;794;48.592;9.634;2022-09-29T02:15:11;6.90;1.00
1602;DHT22;794;48.592;9.634;2022-09-29T02:17:43;9.40;1.00
1602;DHT22;794;48.592;9.634;2022-09-29T02:20:11;6.90;1.00
1602;DHT22;794;48.592;9.634;2022-09-29T02:25:08;6.70;1.00
1602;DHT22;794;48.592;9.634;2022-09-29T02:27:36;6.60;1.00
1602;DHT22;794;48.592;9.634;2022-09-29T02:30:05;6.60;1.00
1602;DHT22;794;48.592;9.634;2022-09-29T02:32:33;6.80;1.00
1602;DHT22;794;48.592;9.634;2022-09-29T02:35:05;6.70;1.00
1602;DHT22;794;48.592;9.634;2022-09-29T02:37:42;6.90;1.00
1602;DHT22;794;48.592;9.634;2022-09-29T02:40:21;6.70;1.00
1602;DHT22;794;48.592;9.634;2022-09-29T02:43:02;6.70;1.00
1602;DHT22;794;48.592;9.634;2022-09-29T02:45:39;6.70;1.00
1602;DHT22;794;48.592;9.634;2022-09-29T02:48:20;6.90;1.00
1602;DHT22;794;48.592;9.634;2022-09-29T02:51:03;6.70;1.00
1602;DHT22;794;48.592;9.634;2022-09-29T02:53:42;6.60;1.00
1602;DHT22;794;48.592;9.634;2022-09-29T02:56:16;6.90;1.00
1602;DHT22;794;48.592;9.634;2022-09-29T02:58:50;6.80;1.00
1602;DHT22;794;48.592;9.634;2022-09-29T03:03:44;6.40;1.00
1602;DHT22;794;48.592;9.634;2022-09-29T03:06:13;7.80;1.00
1602;DHT22;794;48.592;9.634;2022-09-29T03:08:40;6.50;1.00
1602;DHT22;794;48.592;9.634;2022-09-29T03:11:07;6.40;1.00
1602;DHT22;794;48.592;9.634;2022-09-29T03:16:01;6.60;1.00
1602;DHT22;794;48.592;9.634;2022-09-29T03:20:55;6.30;1.00
1602;DHT22;794;48.592;9.634;2022-09-29T03:23:24;7.90;1.00
1602;DHT22;794;48.592;9.634;2022-09-29T03:25:51;6.60;1.00
1602;DHT22;794;48.592;9.634;2022-09-29T03:30:45;6.20;1.00
1602;DHT22;794;48.592;9.634;2022-09-29T03:33:12;6.30;1.00
1602;DHT22;794;48.592;9.634;2022-09-29T03:35:39;6.40;1.00
1602;DHT22;794;48.592;9.634;2022-09-29T03:38:07;6.40;1.00
1602;DHT22;794;48.592;9.634;2022-09-29T03:40:35;6.30;1.00
1602;DHT22;794;48.592;9.634;2022-09-29T03:50:23;6.30;1.00
1602;DHT22;794;48.592;9.634;2022-09-29T03:55:17;6.10;1.00
1602;DHT22;794;48.592;9.634;2022-09-29T03:57:46;6.20;1.00
1602;DHT22;794;48.592;9.634;2022-09-29T04:00:13;6.00;1.00
1602;DHT22;794;48.592;9.634;2022-09-29T04:02:40;6.00;1.00
1602;DHT22;794;48.592;9.634;2022-09-29T04:05:07;8.30;1.00
1602;DHT22;794;48.592;9.634;2022-09-29T04:10:01;6.00;1.00
1602;DHT22;794;48.592;9.634;2022-09-29T04:14:57;5.60;1.00
1602;DHT22;794;48.592;9.634;2022-09-29T04:17:23;5.70;1.00
1602;DHT22;794;48.592;9.634;2022-09-29T04:19:51;6.00;1.00
1602;DHT22;794;48.592;9.634;2022-09-29T04:22:18;6.20;1.00
1602;DHT22;794;48.592;9.634;2022-09-29T04:27:12;6.30;1.00
1602;DHT22;794;48.592;9.634;2022-09-29T04:29:39;6.30;1.00
1602;DHT22;794;48.592;9.634;2022-09-29T04:32:07;6.30;1.00
1602;DHT22;794;48.592;9.634;2022-09-29T04:34:34;8.10;1.00
1602;DHT22;794;48.592;9.634;2022-09-29T04:37:01;6.60;1.00
1602;DHT22;794;48.592;9.634;2022-09-29T04:39:28;6.70;1.00
1602;DHT22;794;48.592;9.634;2022-09-29T04:41:55;6.60;1.00
1602;DHT22;794;48.592;9.634;2022-09-29T04:46:49;6.60;1.00
1602;DHT22;794;48.592;9.634;2022-09-29T04:49:18;6.70;1.00
1602;DHT22;794;48.592;9.634;2022-09-29T04:51:45;6.80;1.00
1602;DHT22;794;48.592;9.634;2022-09-29T04:54:12;6.70;1.00
1602;DHT22;794;48.592;9.634;2022-09-29T04:56:39;6.90;1.00
1602;DHT22;794;48.592;9.634;2022-09-29T05:04:00;6.90;1.00
1602;DHT22;794;48.592;9.634;2022-09-29T05:06:29;6.80;1.00
1602;DHT22;794;48.592;9.634;2022-09-29T05:08:55;6.90;1.00
1602;DHT22;794;48.592;9.634;2022-09-29T05:11:22;6.90;1.00
1602;DHT22;794;48.592;9.634;2022-09-29T05:16:16;6.90;1.00
1602;DHT22;794;48.592;9.634;2022-09-29T05:21:10;6.90;1.00
1602;DHT22;794;48.592;9.634;2022-09-29T05:23:38;6.90;1.00
1602;DHT22;794;48.592;9.634;2022-09-29T05:26:07;7.10;1.00
1602;DHT22;794;48.592;9.634;2022-09-29T05:28:34;7.60;1.00
1602;DHT22;794;48.592;9.634;2022-09-29T05:31:01;7.10;1.00
1602;DHT22;794;48.592;9.634;2022-09-29T05:33:28;7.00;1.00
1602;DHT22;794;48.592;9.634;2022-09-29T05:38:23;7.10;1.00
1602;DHT22;794;48.592;9.634;2022-09-29T05:40:52;7.20;1.00
1602;DHT22;794;48.592;9.634;2022-09-29T05:43:19;7.20;1.00
1602;DHT22;794;48.592;9.634;2022-09-29T05:48:13;7.40;1.00
1602;DHT22;794;48.592;9.634;2022-09-29T05:50:39;7.60;1.00
1602;DHT22;794;48.592;9.634;2022-09-29T05:53:07;7.30;1.00
1602;DHT22;794;48.592;9.634;2022-09-29T05:55:35;7.30;1.00
1602;DHT22;794;48.592;9.634;2022-09-29T05:58:03;7.70;1.00
1602;DHT22;794;48.592;9.634;2022-09-29T06:00:30;7.60;1.00
1602;DHT22;794;48.592;9.634;2022-09-29T06:02:57;7.40;1.00
1602;DHT22;794;48.592;9.634;2022-09-29T06:05:24;7.70;1.00
1602;DHT22;794;48.592;9.634;2022-09-29T06:07:51;8.00;1.00
1602;DHT22;794;48.592;9.634;2022-09-29T06:10:18;7.80;1.00
1602;DHT22;794;48.592;9.634;2022-09-29T06:12:45;8.10;1.00
1602;DHT22;794;48.592;9.634;2022-09-29T06:15:13;7.80;1.00
1602;DHT22;794;48.592;9.634;2022-09-29T06:17:40;7.90;1.00
1602;DHT22;794;48.592;9.634;2022-09-29T06:20:07;8.00;1.00
1602;DHT22;794;48.592;9.634;2022-09-29T06:25:02;8.20;1.00
1602;DHT22;794;48.592;9.634;2022-09-29T06:27:29;8.40;1.00
1602;DHT22;794;48.592;9.634;2022-09-29T06:29:56;8.20;1.00
1602;DHT22;794;48.592;9.634;2022-09-29T06:32:24;8.40;1.00
1602;DHT22;794;48.592;9.634;2022-09-29T06:34:51;8.50;1.00
1602;DHT22;794;48.592;9.634;2022-09-29T06:37:35;8.60;1.00
1602;DHT22;794;48.592;9.634;2022-09-29T06:40:05;8.60;1.00
1602;DHT22;794;48.592;9.634;2022-09-29T06:42:34;8.60;1.00
1602;DHT22;794;48.592;9.634;2022-09-29T06:45:01;8.60;1.00
1602;DHT22;794;48.592;9.634;2022-09-29T06:47:29;8.50;1.00
1602;DHT22;794;48.592;9.634;2022-09-29T06:49:56;8.60;1.00
1602;DHT22;794;48.592;9.634;2022-09-29T06:52:26;10.70;1.00
1602;DHT22;794;48.592;9.634;2022-09-29T06:54:53;9.00;1.00
1602;DHT22;794;48.592;9.634;2022-09-29T06:57:20;9.00;1.00
1602;DHT22;794;48.592;9.634;2022-09-29T06:59:46;9.20;1.00
1602;DHT22;794;48.592;9.634;2022-09-29T07:02:13;9.50;1.00
1602;DHT22;794;48.592;9.634;2022-09-29T07:04:41;9.50;1.00
1602;DHT22;794;48.592;9.634;2022-09-29T07:07:08;9.80;1.00
1602;DHT22;794;48.592;9.634;2022-09-29T07:09:35;10.00;1.00
1602;DHT22;794;48.592;9.634;2022-09-29T07:12:02;10.00;1.00
1602;DHT22;794;48.592;9.634;2022-09-29T07:16:57;10.00;1.00
1602;DHT22;794;48.592;9.634;2022-09-29T07:19:25;10.80;1.00
1602;DHT22;794;48.592;9.634;2022-09-29T07:21:53;10.40;1.00
1602;DHT22;794;48.592;9.634;2022-09-29T07:24:20;10.20;1.00
1602;DHT22;794;48.592;9.634;2022-09-29T07:26:48;10.50;1.00
1602;DHT22;794;48.592;9.634;2022-09-29T07:29:15;10.40;1.00
1602;DHT22;794;48.592;9.634;2022-09-29T07:31:42;10.40;1.00
1602;DHT22;794;48.592;9.634;2022-09-29T07:34:09;11.30;1.00
1602;DHT22;794;48.592;9.634;2022-09-29T07:36:36;10.40;1.00
1602;DHT22;794;48.592;9.634;2022-09-29T07:39:04;10.50;1.00
1602;DHT22;794;48.592;9.634;2022-09-29T07:41:31;10.60;1.00
1602;DHT22;794;48.592;9.634;2022-09-29T07:43:59;10.50;1.00
1602;DHT22;794;48.592;9.634;2022-09-29T07:46:25;11.00;1.00
1602;DHT22;794;48.592;9.634;2022-09-29T07:48:52;10.50;1.00
1602;DHT22;794;48.592;9.634;2022-09-29T07:53:46;10.90;1.00
1602;DHT22;794;48.592;9.634;2022-09-29T07:56:16;11.10;1.00
1602;DHT22;794;48.592;9.634;2022-09-29T07:58:44;11.20;1.00
1602;DHT22;794;48.592;9.634;2022-09-29T08:01:12;10.90;1.00
1602;DHT22;794;48.592;9.634;2022-09-29T08:03:41;11.30;1.00
1602;DHT22;794;48.592;9.634;2022-09-29T08:06:10;11.50;1.00
1602;DHT22;794;48.592;9.634;2022-09-29T08:08:37;11.70;1.00
1602;DHT22;794;48.592;9.634;2022-09-29T08:11:06;11.30;1.00
1602;DHT22;794;48.592;9.634;2022-09-29T08:13:34;11.00;1.00
1602;DHT22;794;48.592;9.634;2022-09-29T08:16:03;11.00;1.00
1602;DHT22;794;48.592;9.634;2022-09-29T08:18:30;11.10;1.00
1602;DHT22;794;48.592;9.634;2022-09-29T08:20:58;11.40;1.00
1602;DHT22;794;48.592;9.634;2022-09-29T08:23:24;11.90;1.00
1602;DHT22;794;48.592;9.634;2022-09-29T08:25:58;12.50;1.00
1602;DHT22;794;48.592;9.634;2022-09-29T08:28:27;12.70;1.00
1602;DHT22;794;48.592;9.634;2022-09-29T08:30:55;13.00;1.00
1602;DHT22;794;48.592;9.634;2022-09-29T08:33:23;13.10;1.00
1602;DHT22;794;48.592;9.634;2022-09-29T08:35:55;13.30;1.00
1602;DHT22;794;48.592;9.634;2022-09-29T08:38:22;13.50;1.00
1602;DHT22;794;48.592;9.634;2022-09-29T08:40:49;13.10;1.00
1602;DHT22;794;48.592;9.634;2022-09-29T08:43:21;13.10;1.00
1602;DHT22;794;48.592;9.634;2022-09-29T08:45:55;13.00;1.00
1602;DHT22;794;48.592;9.634;2022-09-29T08:48:25;13.10;1.00
1602;DHT22;794;48.592;9.634;2022-09-29T08:50:56;13.30;1.00
1602;DHT22;794;48.592;9.634;2022-09-29T08:53:25;13.10;1.00
1602;DHT22;794;48.592;9.634;2022-09-29T08:55:55;13.40;1.00
1602;DHT22;794;48.592;9.634;2022-09-29T08:58:23;13.30;1.00
1602;DHT22;794;48.592;9.634;2022-09-29T09:00:58;12.90;1.00
1602;DHT22;794;48.592;9.634;2022-09-29T09:03:56;12.90;1.00
1602;DHT22;794;48.592;9.634;2022-09-29T09:06:34;13.50;1.00
1602;DHT22;794;48.592;9.634;2022-09-29T09:09:12;12.90;1.00
1602;DHT22;794;48.592;9.634;2022-09-29T09:12:00;13.00;1.00
1602;DHT22;794;48.592;9.634;2022-09-29T09:14:42;13.00;1.00
1602;DHT22;794;48.592;9.634;2022-09-29T09:17:23;13.30;1.00
1602;DHT22;794;48.592;9.634;2022-09-29T09:20:19;13.40;1.00
1602;DHT22;794;48.592;9.634;2022-09-29T09:22:54;13.30;1.00
1602;DHT22;794;48.592;9.634;2022-09-29T09:25:27;13.50;1.00
1602;DHT22;794;48.592;9.634;2022-09-29T09:28:01;12.80;1.00
1602;DHT22;794;48.592;9.634;2022-09-29T09:30:36;12.50;1.00
1602;DHT22;794;48.592;9.634;2022-09-29T09:33:13;12.30;1.00
1602;DHT22;794;48.592;9.634;2022-09-29T09:35:44;12.60;1.00
1602;DHT22;794;48.592;9.634;2022-09-29T09:38:16;12.50;1.00
1602;DHT22;794;48.592;9.634;2022-09-29T09:40:46;12.80;1.00
1602;DHT22;794;48.592;9.634;2022-09-29T09:43:18;13.00;1.00
1602;DHT22;794;48.592;9.634;2022-09-29T09:45:50;13.50;1.00
1602;DHT22;794;48.592;9.634;2022-09-29T09:48:25;13.60;1.00
1602;DHT22;794;48.592;9.634;2022-09-29T09:50:58;13.70;1.00
1602;DHT22;794;48.592;9.634;2022-09-29T09:53:30;14.20;1.00
1602;DHT22;794;48.592;9.634;2022-09-29T09:56:13;14.50;1.00
1602;DHT22;794;48.592;9.634;2022-09-29T09:59:03;14.50;1.00
1602;DHT22;794;48.592;9.634;2022-09-29T10:01:34;14.40;1.00
1602;DHT22;794;48.592;9.634;2022-09-29T10:04:03;14.50;1.00
1602;DHT22;794;48.592;9.634;2022-09-29T10:06:30;13.60;1.00
1602;DHT22;794;48.592;9.634;2022-09-29T10:08:58;13.90;1.00
1602;DHT22;794;48.592;9.634;2022-09-29T10:11:26;13.90;1.00
1602;DHT22;794;48.592;9.634;2022-09-29T10:13:59;14.10;1.00
1602;DHT22;794;48.592;9.634;2022-09-29T10:16:32;13.50;1.00
1602;DHT22;794;48.592;9.634;2022-09-29T10:19:07;13.50;1.00
1602;DHT22;794;48.592;9.634;2022-09-29T10:21:37;13.10;1.00
1602;DHT22;794;48.592;9.634;2022-09-29T10:24:04;13.60;1.00
1602;DHT22;794;48.592;9.634;2022-09-29T10:26:35;13.60;1.00
1602;DHT22;794;48.592;9.634;2022-09-29T10:29:15;13.40;1.00
1602;DHT22;794;48.592;9.634;2022-09-29T10:31:57;13.30;1.00
1602;DHT22;794;48.592;9.634;2022-09-29T10:34:28;13.40;1.00
1602;DHT22;794;48.592;9.634;2022-09-29T10:36:58;13.10;1.00
1602;DHT22;794;48.592;9.634;2022-09-29T10:39:31;13.00;1.00
1602;DHT22;794;48.592;9.634;2022-09-29T10:41:59;13.40;1.00
1602;DHT22;794;48.592;9.634;2022-09-29T10:44:31;13.60;1.00
1602;DHT22;794;48.592;9.634;2022-09-29T10:46:58;13.60;1.00
1602;DHT22;794;48.592;9.634;2022-09-29T10:49:28;14.00;1.00
1602;DHT22;794;48.592;9.634;2022-09-29T10:52:01;14.20;1.00
1602;DHT22;794;48.592;9.634;2022-09-29T10:54:31;14.40;1.00
1602;DHT22;794;48.592;9.634;2022-09-29T10:56:59;14.40;1.00
1602;DHT22;794;48.592;9.634;2022-09-29T10:59:45;14.80;1.00
1602;DHT22;794;48.592;9.634;2022-09-29T11:02:19;14.40;1.00
1602;DHT22;794;48.592;9.634;2022-09-29T11:04:50;14.70;1.00
1602;DHT22;794;48.592;9.634;2022-09-29T11:12:26;13.90;1.00
1602;DHT22;794;48.592;9.634;2022-09-29T11:17:22;13.20;1.00
1602;DHT22;794;48.592;9.634;2022-09-29T11:19:52;13.30;1.00
1602;DHT22;794;48.592;9.634;2022-09-29T11:22:32;13.10;1.00
1602;DHT22;794;48.592;9.634;2022-09-29T11:25:29;13.30;1.00
1602;DHT22;794;48.592;9.634;2022-09-29T11:28:12;13.00;1.00
1602;DHT22;794;48.592;9.634;2022-09-29T11:30:51;13.00;1.00
1602;DHT22;794;48.592;9.634;2022-09-29T11:33:30;12.90;1.00
1602;DHT22;794;48.592;9.634;2022-09-29T11:36:07;13.20;1.00
1602;DHT22;794;48.592;9.634;2022-09-29T11:38:51;12.90;1.00
1602;DHT22;794;48.592;9.634;2022-09-29T11:41:37;13.40;1.00
1602;DHT22;794;48.592;9.634;2022-09-29T11:44:17;13.50;1.00
1602;DHT22;794;48.592;9.634;2022-09-29T11:46:56;13.40;1.00
1602;DHT22;794;48.592;9.634;2022-09-29T11:49:49;13.70;1.00
1602;DHT22;794;48.592;9.634;2022-09-29T11:52:37;13.60;1.00
1602;DHT22;794;48.592;9.634;2022-09-29T11:55:24;13.70;1.00
1602;DHT22;794;48.592;9.634;2022-09-29T11:58:01;14.00;1.00
1602;DHT22;794;48.592;9.634;2022-09-29T12:00:46;14.50;1.00
1602;DHT22;794;48.592;9.634;2022-09-29T12:03:41;14.70;1.00
1602;DHT22;794;48.592;9.634;2022-09-29T12:06:30;14.90;1.00
1602;DHT22;794;48.592;9.634;2022-09-29T12:09:14;14.80;1.00
1602;DHT22;794;48.592;9.634;2022-09-29T12:11:53;14.20;1.00
1602;DHT22;794;48.592;9.634;2022-09-29T12:14:32;14.20;1.00
1602;DHT22;794;48.592;9.634;2022-09-29T12:17:08;14.40;1.00
1602;DHT22;794;48.592;9.634;2022-09-29T12:20:19;14.30;1.00
1602;DHT22;794;48.592;9.634;2022-09-29T12:22:49;14.20;1.00
1602;DHT22;794;48.592;9.634;2022-09-29T12:25:22;14.10;1.00
1602;DHT22;794;48.592;9.634;2022-09-29T12:27:53;13.70;1.00
1602;DHT22;794;48.592;9.634;2022-09-29T12:30:23;13.60;1.00
1602;DHT22;794;48.592;9.634;2022-09-29T12:32:56;13.70;1.00
1602;DHT22;794;48.592;9.634;2022-09-29T12:35:31;13.60;1.00
1602;DHT22;794;48.592;9.634;2022-09-29T12:38:08;13.50;1.00
1602;DHT22;794;48.592;9.634;2022-09-29T12:40:43;13.40;1.00
1602;DHT22;794;48.592;9.634;2022-09-29T12:43:18;13.50;1.00
1602;DHT22;794;48.592;9.634;2022-09-29T12:45:53;13.70;1.00
1602;DHT22;794;48.592;9.634;2022-09-29T12:48:31;13.50;1.00
1602;DHT22;794;48.592;9.634;2022-09-29T12:51:02;13.40;1.00
1602;DHT22;794;48.592;9.634;2022-09-29T12:53:38;13.30;1.00
1602;DHT22;794;48.592;9.634;2022-09-29T12:56:11;13.40;1.00
1602;DHT22;794;48.592;9.634;2022-09-29T12:58:42;13.50;1.00
1602;DHT22;794;48.592;9.634;2022-09-29T13:01:19;13.40;1.00
1602;DHT22;794;48.592;9.634;2022-09-29T13:07:06;13.20;1.00
1602;DHT22;794;48.592;9.634;2022-09-29T13:09:54;12.90;1.00
1602;DHT22;794;48.592;9.634;2022-09-29T13:12:46;12.70;1.00
1602;DHT22;794;48.592;9.634;2022-09-29T13:15:26;13.00;1.00
1602;DHT22;794;48.592;9.634;2022-09-29T13:18:13;13.10;1.00
1602;DHT22;794;48.592;9.634;2022-09-29T13:20:53;12.90;1.00
1602;DHT22;794;48.592;9.634;2022-09-29T13:24:00;13.00;1.00
1602;DHT22;794;48.592;9.634;2022-09-29T13:26:48;13.00;1.00
1602;DHT22;794;48.592;9.634;2022-09-29T13:29:20;12.80;1.00
1602;DHT22;794;48.592;9.634;2022-09-29T13:31:49;12.90;1.00
1602;DHT22;794;48.592;9.634;2022-09-29T13:34:27;13.10;1.00
1602;DHT22;794;48.592;9.634;2022-09-29T13:37:03;13.40;1.00
1602;DHT22;794;48.592;9.634;2022-09-29T13:39:31;13.30;1.00
1602;DHT22;794;48.592;9.634;2022-09-29T13:42:27;13.70;1.00
1602;DHT22;794;48.592;9.634;2022-09-29T13:51:41;14.10;1.00
1602;DHT22;794;48.592;9.634;2022-09-29T13:54:23;13.50;1.00
1602;DHT22;794;48.592;9.634;2022-09-29T13:56:58;13.90;1.00
1602;DHT22;794;48.592;9.634;2022-09-29T13:59:26;13.80;1.00
1602;DHT22;794;48.592;9.634;2022-09-29T14:01:56;14.00;1.00
1602;DHT22;794;48.592;9.634;2022-09-29T14:04:50;14.20;1.00
1602;DHT22;794;48.592;9.634;2022-09-29T14:07:36;14.40;1.00
1602;DHT22;794;48.592;9.634;2022-09-29T14:10:14;14.40;1.00
1602;DHT22;794;48.592;9.634;2022-09-29T14:12:44;14.60;1.00
1602;DHT22;794;48.592;9.634;2022-09-29T14:15:15;17.50;1.00
1602;DHT22;794;48.592;9.634;2022-09-29T14:17:48;14.90;1.00
1602;DHT22;794;48.592;9.634;2022-09-29T14:20:19;14.70;1.00
1602;DHT22;794;48.592;9.634;2022-09-29T14:22:56;14.70;1.00
1602;DHT22;794;48.592;9.634;2022-09-29T14:28:16;14.40;1.00
1602;DHT22;794;48.592;9.634;2022-09-29T14:30:47;14.70;1.00
1602;DHT22;794;48.592;9.634;2022-09-29T14:33:20;14.90;1.00
1602;DHT22;794;48.592;9.634;2022-09-29T14:35:54;14.70;1.00
1602;DHT22;794;48.592;9.634;2022-09-29T14:38:29;13.90;1.00
1602;DHT22;794;48.592;9.634;2022-09-29T14:40:59;13.30;1.00
1602;DHT22;794;48.592;9.634;2022-09-29T14:43:36;13.90;1.00
1602;DHT22;794;48.592;9.634;2022-09-29T14:49:47;14.00;1.00
1602;DHT22;794;48.592;9.634;2022-09-29T14:52:45;13.80;1.00
1602;DHT22;794;48.592;9.634;2022-09-29T14:55:24;14.10;1.00
1602;DHT22;794;48.592;9.634;2022-09-29T14:58:13;14.20;1.00
1602;DHT22;794;48.592;9.634;2022-09-29T15:00:55;14.20;1.00
1602;DHT22;794;48.592;9.634;2022-09-29T15:03:27;13.80;1.00
1602;DHT22;794;48.592;9.634;2022-09-29T15:06:11;13.80;1.00
1602;DHT22;794;48.592;9.634;2022-09-29T15:11:24;14.00;1.00
1602;DHT22;794;48.592;9.634;2022-09-29T15:16:23;14.00;1.00
1602;DHT22;794;48.592;9.634;2022-09-29T15:19:12;13.90;1.00
1602;DHT22;794;48.592;9.634;2022-09-29T15:21:50;13.70;1.00
1602;DHT22;794;48.592;9.634;2022-09-29T15:24:30;13.50;1.00
1602;DHT22;794;48.592;9.634;2022-09-29T15:27:00;13.30;1.00
1602;DHT22;794;48.592;9.634;2022-09-29T15:29:29;13.40;1.00
1602;DHT22;794;48.592;9.634;2022-09-29T15:31:57;13.70;1.00
1602;DHT22;794;48.592;9.634;2022-09-29T15:36:54;13.40;1.00
1602;DHT22;794;48.592;9.634;2022-09-29T15:39:41;13.00;1.00
1602;DHT22;794;48.592;9.634;2022-09-29T15:42:14;13.20;1.00
1602;DHT22;794;48.592;9.634;2022-09-29T15:44:45;13.30;1.00
1602;DHT22;794;48.592;9.634;2022-09-29T15:47:22;13.30;1.00
1602;DHT22;794;48.592;9.634;2022-09-29T15:49:50;13.00;1.00
1602;DHT22;794;48.592;9.634;2022-09-29T15:52:19;13.00;1.00
1602;DHT22;794;48.592;9.634;2022-09-29T15:54:52;12.80;1.00
1602;DHT22;794;48.592;9.634;2022-09-29T15:57:40;12.70;1.00
1602;DHT22;794;48.592;9.634;2022-09-29T16:03:29;12.70;1.00
1602;DHT22;794;48.592;9.634;2022-09-29T16:06:12;12.70;1.00
1602;DHT22;794;48.592;9.634;2022-09-29T16:08:44;12.50;1.00
1602;DHT22;794;48.592;9.634;2022-09-29T16:11:19;12.50;1.00
1602;DHT22;794;48.592;9.634;2022-09-29T16:13:50;12.40;1.00
1602;DHT22;794;48.592;9.634;2022-09-29T16:16:26;12.40;1.00
1602;DHT22;794;48.592;9.634;2022-09-29T16:18:59;12.30;1.00
1602;DHT22;794;48.592;9.634;2022-09-29T16:21:32;12.10;1.00
1602;DHT22;794;48.592;9.634;2022-09-29T16:24:05;12.30;1.00
1602;DHT22;794;48.592;9.634;2022-09-29T16:26:35;12.20;1.00
1602;DHT22;794;48.592;9.634;2022-09-29T16:31:48;12.00;1.00
1602;DHT22;794;48.592;9.634;2022-09-29T16:34:23;11.70;1.00
1602;DHT22;794;48.592;9.634;2022-09-29T16:36:51;12.20;1.00
1602;DHT22;794;48.592;9.634;2022-09-29T16:39:21;12.00;1.00
1602;DHT22;794;48.592;9.634;2022-09-29T16:41:50;11.70;1.00
1602;DHT22;794;48.592;9.634;2022-09-29T16:44:23;11.50;1.00
1602;DHT22;794;48.592;9.634;2022-09-29T16:46:53;11.70;1.00
1602;DHT22;794;48.592;9.634;2022-09-29T16:49:23;11.50;1.00
1602;DHT22;794;48.592;9.634;2022-09-29T16:51:52;11.50;1.00
1602;DHT22;794;48.592;9.634;2022-09-29T16:54:23;11.40;1.00
1602;DHT22;794;48.592;9.634;2022-09-29T16:57:15;11.60;1.00
1602;DHT22;794;48.592;9.634;2022-09-29T16:59:43;11.40;1.00
1602;DHT22;794;48.592;9.634;2022-09-29T17:04:38;11.00;1.00
1602;DHT22;794;48.592;9.634;2022-09-29T17:09:34;10.60;1.00
1602;DHT22;794;48.592;9.634;2022-09-29T17:21:52;10.30;1.00
1602;DHT22;794;48.592;9.634;2022-09-29T17:26:48;10.30;1.00
1602;DHT22;794;48.592;9.634;2022-09-29T17:29:33;11.80;1.00
1602;DHT22;794;48.592;9.634;2022-09-29T17:32:00;10.00;1.00
1602;DHT22;794;48.592;9.634;2022-09-29T17:34:28;9.90;1.00
1602;DHT22;794;48.592;9.634;2022-09-29T17:36:55;10.00;1.00
1602;DHT22;794;48.592;9.634;2022-09-29T17:39:24;9.90;1.00
1602;DHT22;794;48.592;9.634;2022-09-29T17:41:52;9.60;1.00
1602;DHT22;794;48.592;9.634;2022-09-29T17:49:16;9.30;1.00
1602;DHT22;794;48.592;9.634;2022-09-29T17:54:10;9.20;1.00
1602;DHT22;794;48.592;9.634;2022-09-29T17:56:39;9.20;1.00
1602;DHT22;794;48.592;9.634;2022-09-29T17:59:08;8.80;1.00
1602;DHT22;794;48.592;9.634;2022-09-29T18:01:35;8.80;1.00
1602;DHT22;794;48.592;9.634;2022-09-29T18:04:03;8.80;1.00
1602;DHT22;794;48.592;9.634;2022-09-29T18:16:24;8.90;1.00
1602;DHT22;794;48.592;9.634;2022-09-29T18:18:51;9.10;1.00
1602;DHT22;794;48.592;9.634;2022-09-29T18:21:18;9.80;1.00
1602;DHT22;794;48.592;9.634;2022-09-29T18:23:45;8.70;1.00
1602;DHT22;794;48.592;9.634;2022-09-29T18:28:40;8.80;1.00
1602;DHT22;794;48.592;9.634;2022-09-29T18:31:14;8.50;1.00
1602;DHT22;794;48.592;9.634;2022-09-29T18:38:39;8.50;1.00
1602;DHT22;794;48.592;9.634;2022-09-29T18:41:08;8.40;1.00
1602;DHT22;794;48.592;9.634;2022-09-29T18:43:36;8.20;1.00
1602;DHT22;794;48.592;9.634;2022-09-29T18:46:02;8.40;1.00
1602;DHT22;794;48.592;9.634;2022-09-29T18:50:58;8.00;1.00
1602;DHT22;794;48.592;9.634;2022-09-29T18:53:25;8.20;1.00
1602;DHT22;794;48.592;9.634;2022-09-29T18:55:54;8.00;1.00
1602;DHT22;794;48.592;9.634;2022-09-29T18:58:22;10.00;1.00
1602;DHT22;794;48.592;9.634;2022-09-29T19:00:50;7.70;1.00
1602;DHT22;794;48.592;9.634;2022-09-29T19:03:19;7.60;1.00
1602;DHT22;794;48.592;9.634;2022-09-29T19:05:48;7.50;1.00
1602;DHT22;794;48.592;9.634;2022-09-29T19:08:17;8.00;1.00
1602;DHT22;794;48.592;9.634;2022-09-29T19:10:47;7.80;1.00
1602;DHT22;794;48.592;9.634;2022-09-29T19:15:43;7.80;1.00
1602;DHT22;794;48.592;9.634;2022-09-29T19:18:14;9.20;1.00
1602;DHT22;794;48.592;9.634;2022-09-29T19:23:08;7.90;1.00
1602;DHT22;794;48.592;9.634;2022-09-29T19:25:38;7.80;1.00
1602;DHT22;794;48.592;9.634;2022-09-29T19:30:34;8.00;1.00
1602;DHT22;794;48.592;9.634;2022-09-29T19:40:27;7.50;1.00
1602;DHT22;794;48.592;9.634;2022-09-29T19:45:27;7.50;1.00
1602;DHT22;794;48.592;9.634;2022-09-29T19:50:22;7.60;1.00
1602;DHT22;794;48.592;9.634;2022-09-29T19:55:37;7.80;1.00
1602;DHT22;794;48.592;9.634;2022-09-29T19:58:06;7.60;1.00
1602;DHT22;794;48.592;9.634;2022-09-29T20:00:33;7.80;1.00
1602;DHT22;794;48.592;9.634;2022-09-29T20:03:00;7.70;1.00
1602;DHT22;794;48.592;9.634;2022-09-29T20:05:27;7.90;1.00
1602;DHT22;794;48.592;9.634;2022-09-29T20:20:16;7.60;1.00
1602;DHT22;794;48.592;9.634;2022-09-29T20:30:06;7.90;1.00
1602;DHT22;794;48.592;9.634;2022-09-29T20:32:34;8.30;1.00
1602;DHT22;794;48.592;9.634;2022-09-29T20:35:01;7.80;1.00